Página principal
METAR-TAF:

METAR-TAF

Aeroportos :

Nouadhibou, Mauritânia

latitude: 20-56N, longitude: 017-02W, altura: 5 m

Observação actual do tempo

O boletim foi feito há 15 minutos, às 22:00 UTC
Vento 14 kt de norte
Temperatura 17°C
Humidade 72%
Pressão 1018 hPa
Visibilidade: 7000 m

METAR: GQPP 172200Z 36014KT 7000 NSC 17/12 Q1018 NOSIG

Hora: 22:15 (22:15 UTC)

Previsão

O boletim foi feito há 5 horas e 15 minutos, às 17:00 UTC
Previsão válida de 17 às 18 UTC a 18 às 18 UTC
Vento 20 kt de nor-noroeste
Visibilidade: 7000 m
Tornando-se
de 18 às 06 UTC a 18 às 09 UTC
Vento 16 kt de nordeste
Tornando-se
de 18 às 13 UTC a 18 às 16 UTC
Vento 20 kt de nor-noroeste

TAF: GQPP 171700Z 1718/1818 33020KT 7000 NSC BECMG 1806/1809 04016KT BECMG 1813/1816 33020KT

Observações e previsões do tempo de mais de 4000 aeroportos (mensagens METAR e TAF).

As estações disponíveis são os pontos amarelos e vermelhos sobre o mapa.

Mova o rato sobre o mapa para ver o nome da estação.

Depois clique no ponto para visualizar as observações e previsões meteorológicas.

Para alterar o mapa : clique nos botões verdes com uma cruz preta para aumentar o zoom; no botão verde com uma pitada de zoom; ou nas setas verdes para mapas adjacentes.


METAR-TAF: